sensor_id;sensor_type;location;lat;lon;timestamp;temperature;humidity
1524;DHT22;755;53.658;10.118;2023-12-22T00:07:07;5.60;94.70
1524;DHT22;755;53.658;10.118;2023-12-22T00:17:12;5.50;99.90
1524;DHT22;755;53.658;10.118;2023-12-22T00:27:15;5.40;1.00
1524;DHT22;755;53.658;10.118;2023-12-22T00:37:19;5.40;99.90
1524;DHT22;755;53.658;10.118;2023-12-22T00:47:21;5.40;1.00
1524;DHT22;755;53.658;10.118;2023-12-22T00:57:25;5.50;1.00
1524;DHT22;755;53.658;10.118;2023-12-22T01:07:27;5.50;1.00
1524;DHT22;755;53.658;10.118;2023-12-22T01:17:30;5.50;1.00
1524;DHT22;755;53.658;10.118;2023-12-22T01:27:32;5.50;1.00
1524;DHT22;755;53.658;10.118;2023-12-22T01:37:36;5.40;99.90
1524;DHT22;755;53.658;10.118;2023-12-22T01:47:38;4.70;99.90
1524;DHT22;755;53.658;10.118;2023-12-22T01:57:42;4.30;99.90
1524;DHT22;755;53.658;10.118;2023-12-22T02:07:45;4.10;99.90
1524;DHT22;755;53.658;10.118;2023-12-22T02:17:55;4.10;99.90
1524;DHT22;755;53.658;10.118;2023-12-22T02:28:02;3.80;99.90
1524;DHT22;755;53.658;10.118;2023-12-22T02:38:07;3.80;99.90
1524;DHT22;755;53.658;10.118;2023-12-22T02:48:11;4.00;99.90
1524;DHT22;755;53.658;10.118;2023-12-22T02:58:12;3.50;99.90
1524;DHT22;755;53.658;10.118;2023-12-22T03:08:16;3.60;99.90
1524;DHT22;755;53.658;10.118;2023-12-22T03:18:18;3.70;99.90
1524;DHT22;755;53.658;10.118;2023-12-22T03:28:21;3.50;99.90
1524;DHT22;755;53.658;10.118;2023-12-22T03:38:23;3.20;99.90
1524;DHT22;755;53.658;10.118;2023-12-22T03:48:26;3.10;99.90
1524;DHT22;755;53.658;10.118;2023-12-22T03:58:28;3.10;99.90
1524;DHT22;755;53.658;10.118;2023-12-22T04:08:32;3.10;99.90
1524;DHT22;755;53.658;10.118;2023-12-22T04:18:34;3.10;99.90
1524;DHT22;755;53.658;10.118;2023-12-22T04:28:37;3.30;99.90
1524;DHT22;755;53.658;10.118;2023-12-22T04:38:39;3.60;99.90
1524;DHT22;755;53.658;10.118;2023-12-22T04:48:43;4.00;99.90
1524;DHT22;755;53.658;10.118;2023-12-22T04:58:45;4.00;99.90
1524;DHT22;755;53.658;10.118;2023-12-22T05:08:48;4.10;99.90
1524;DHT22;755;53.658;10.118;2023-12-22T05:18:50;4.10;99.90
1524;DHT22;755;53.658;10.118;2023-12-22T05:28:53;4.10;99.90
1524;DHT22;755;53.658;10.118;2023-12-22T05:38:55;4.20;1.00
1524;DHT22;755;53.658;10.118;2023-12-22T05:48:58;4.30;1.00
1524;DHT22;755;53.658;10.118;2023-12-22T05:59:00;2.90;99.90
1524;DHT22;755;53.658;10.118;2023-12-22T06:09:04;2.50;99.90
1524;DHT22;755;53.658;10.118;2023-12-22T06:19:06;2.40;99.90
1524;DHT22;755;53.658;10.118;2023-12-22T06:29:09;2.50;99.90
1524;DHT22;755;53.658;10.118;2023-12-22T06:39:11;2.50;99.90
1524;DHT22;755;53.658;10.118;2023-12-22T06:49:14;2.60;99.90
1524;DHT22;755;53.658;10.118;2023-12-22T06:59:16;2.70;99.90
1524;DHT22;755;53.658;10.118;2023-12-22T07:09:32;3.00;99.90
1524;DHT22;755;53.658;10.118;2023-12-22T07:19:34;3.40;99.90
1524;DHT22;755;53.658;10.118;2023-12-22T07:29:37;3.30;1.00
1524;DHT22;755;53.658;10.118;2023-12-22T07:39:39;3.30;1.00
1524;DHT22;755;53.658;10.118;2023-12-22T07:49:43;3.30;99.90
1524;DHT22;755;53.658;10.118;2023-12-22T07:59:45;3.50;1.00
1524;DHT22;755;53.658;10.118;2023-12-22T08:09:48;3.60;99.90
1524;DHT22;755;53.658;10.118;2023-12-22T08:19:50;3.80;1.00
1524;DHT22;755;53.658;10.118;2023-12-22T08:29:53;3.30;99.90
1524;DHT22;755;53.658;10.118;2023-12-22T08:39:55;3.10;99.90
1524;DHT22;755;53.658;10.118;2023-12-22T08:49:59;3.20;99.90
1524;DHT22;755;53.658;10.118;2023-12-22T09:00:04;3.50;99.90
1524;DHT22;755;53.658;10.118;2023-12-22T09:10:08;3.50;17.30
1524;DHT22;755;53.658;10.118;2023-12-22T09:20:10;3.80;99.90
1524;DHT22;755;53.658;10.118;2023-12-22T09:30:14;4.00;99.90
1524;DHT22;755;53.658;10.118;2023-12-22T09:40:16;4.10;1.00
1524;DHT22;755;53.658;10.118;2023-12-22T09:50:20;4.20;99.90
1524;DHT22;755;53.658;10.118;2023-12-22T10:00:24;4.50;1.00
1524;DHT22;755;53.658;10.118;2023-12-22T10:10:30;4.70;1.00
1524;DHT22;755;53.658;10.118;2023-12-22T10:20:32;4.90;1.00
1524;DHT22;755;53.658;10.118;2023-12-22T10:30:36;4.80;14.10
1524;DHT22;755;53.658;10.118;2023-12-22T10:40:40;4.60;99.90
1524;DHT22;755;53.658;10.118;2023-12-22T10:50:43;4.60;1.00
1524;DHT22;755;53.658;10.118;2023-12-22T11:00:48;4.60;1.00
1524;DHT22;755;53.658;10.118;2023-12-22T11:10:57;4.80;1.00
1524;DHT22;755;53.658;10.118;2023-12-22T11:21:01;4.80;92.60
1524;DHT22;755;53.658;10.118;2023-12-22T11:31:06;4.80;53.30
1524;DHT22;755;53.658;10.118;2023-12-22T11:41:12;5.10;99.90
1524;DHT22;755;53.658;10.118;2023-12-22T11:51:16;5.10;99.90
1524;DHT22;755;53.658;10.118;2023-12-22T12:01:19;5.10;1.00
1524;DHT22;755;53.658;10.118;2023-12-22T12:11:23;5.20;1.00
1524;DHT22;755;53.658;10.118;2023-12-22T12:21:26;5.00;99.90
1524;DHT22;755;53.658;10.118;2023-12-22T12:31:37;5.10;99.90
1524;DHT22;755;53.658;10.118;2023-12-22T12:41:41;5.10;99.90
1524;DHT22;755;53.658;10.118;2023-12-22T12:51:47;5.10;99.90
1524;DHT22;755;53.658;10.118;2023-12-22T13:01:49;5.10;99.90
1524;DHT22;755;53.658;10.118;2023-12-22T13:11:52;5.10;1.00
1524;DHT22;755;53.658;10.118;2023-12-22T13:21:57;4.90;99.90
1524;DHT22;755;53.658;10.118;2023-12-22T13:32:01;4.80;1.00
1524;DHT22;755;53.658;10.118;2023-12-22T13:42:03;4.80;1.00
1524;DHT22;755;53.658;10.118;2023-12-22T13:52:07;4.50;1.00
1524;DHT22;755;53.658;10.118;2023-12-22T14:02:09;4.30;1.00
1524;DHT22;755;53.658;10.118;2023-12-22T14:12:12;4.40;1.00
1524;DHT22;755;53.658;10.118;2023-12-22T14:22:14;4.40;1.00
1524;DHT22;755;53.658;10.118;2023-12-22T14:32:17;4.40;1.00
1524;DHT22;755;53.658;10.118;2023-12-22T14:42:20;4.30;1.00
1524;DHT22;755;53.658;10.118;2023-12-22T14:52:24;4.30;1.00
1524;DHT22;755;53.658;10.118;2023-12-22T15:02:25;4.40;1.00
1524;DHT22;755;53.658;10.118;2023-12-22T15:12:29;4.40;1.00
1524;DHT22;755;53.658;10.118;2023-12-22T15:22:33;4.40;1.00
1524;DHT22;755;53.658;10.118;2023-12-22T15:32:38;4.30;1.00
1524;DHT22;755;53.658;10.118;2023-12-22T15:42:43;4.10;1.00
1524;DHT22;755;53.658;10.118;2023-12-22T15:52:46;4.20;99.90
1524;DHT22;755;53.658;10.118;2023-12-22T16:02:48;4.10;99.90
1524;DHT22;755;53.658;10.118;2023-12-22T16:12:52;4.00;99.90
1524;DHT22;755;53.658;10.118;2023-12-22T16:22:54;4.00;99.90
1524;DHT22;755;53.658;10.118;2023-12-22T16:32:57;4.00;99.90
1524;DHT22;755;53.658;10.118;2023-12-22T16:42:59;4.20;1.00
1524;DHT22;755;53.658;10.118;2023-12-22T16:53:03;4.20;1.00
1524;DHT22;755;53.658;10.118;2023-12-22T17:03:05;3.70;99.90
1524;DHT22;755;53.658;10.118;2023-12-22T17:13:08;3.60;99.90
1524;DHT22;755;53.658;10.118;2023-12-22T17:23:10;3.40;99.90
1524;DHT22;755;53.658;10.118;2023-12-22T17:33:14;3.30;99.90
1524;DHT22;755;53.658;10.118;2023-12-22T17:43:16;3.30;99.90
1524;DHT22;755;53.658;10.118;2023-12-22T17:53:19;3.20;99.90
1524;DHT22;755;53.658;10.118;2023-12-22T18:03:25;3.10;99.90
1524;DHT22;755;53.658;10.118;2023-12-22T18:13:28;3.10;99.90
1524;DHT22;755;53.658;10.118;2023-12-22T18:23:32;3.10;99.90
1524;DHT22;755;53.658;10.118;2023-12-22T18:33:35;3.00;99.90
1524;DHT22;755;53.658;10.118;2023-12-22T18:43:37;3.00;99.90
1524;DHT22;755;53.658;10.118;2023-12-22T18:53:41;3.10;99.90
1524;DHT22;755;53.658;10.118;2023-12-22T19:03:43;3.30;99.90
1524;DHT22;755;53.658;10.118;2023-12-22T19:13:47;3.60;99.90
1524;DHT22;755;53.658;10.118;2023-12-22T19:23:49;3.80;99.90
1524;DHT22;755;53.658;10.118;2023-12-22T19:33:53;4.00;99.90
1524;DHT22;755;53.658;10.118;2023-12-22T19:43:55;3.90;99.90
1524;DHT22;755;53.658;10.118;2023-12-22T19:53:58;3.90;1.00
1524;DHT22;755;53.658;10.118;2023-12-22T20:04:00;3.90;99.90
1524;DHT22;755;53.658;10.118;2023-12-22T20:14:04;3.90;99.90
1524;DHT22;755;53.658;10.118;2023-12-22T20:24:06;3.80;99.90
1524;DHT22;755;53.658;10.118;2023-12-22T20:34:10;3.80;99.90
1524;DHT22;755;53.658;10.118;2023-12-22T20:44:12;3.80;99.90
1524;DHT22;755;53.658;10.118;2023-12-22T20:54:17;4.00;84.40
1524;DHT22;755;53.658;10.118;2023-12-22T21:04:19;4.10;1.00
1524;DHT22;755;53.658;10.118;2023-12-22T21:14:22;4.30;1.00
1524;DHT22;755;53.658;10.118;2023-12-22T21:24:24;3.00;99.90
1524;DHT22;755;53.658;10.118;2023-12-22T21:34:27;2.50;99.90
1524;DHT22;755;53.658;10.118;2023-12-22T21:44:30;2.50;99.90
1524;DHT22;755;53.658;10.118;2023-12-22T21:54:33;2.40;99.90
1524;DHT22;755;53.658;10.118;2023-12-22T22:04:35;2.40;99.90
1524;DHT22;755;53.658;10.118;2023-12-22T22:14:40;2.20;99.90
1524;DHT22;755;53.658;10.118;2023-12-22T22:24:42;2.10;99.90
1524;DHT22;755;53.658;10.118;2023-12-22T22:34:46;2.10;99.90
1524;DHT22;755;53.658;10.118;2023-12-22T22:44:47;2.10;99.90
1524;DHT22;755;53.658;10.118;2023-12-22T22:54:51;2.20;99.90
1524;DHT22;755;53.658;10.118;2023-12-22T23:04:54;2.30;94.30
1524;DHT22;755;53.658;10.118;2023-12-22T23:14:57;2.30;1.00
1524;DHT22;755;53.658;10.118;2023-12-22T23:24:59;2.30;1.00
1524;DHT22;755;53.658;10.118;2023-12-22T23:35:04;2.30;99.90
1524;DHT22;755;53.658;10.118;2023-12-22T23:45:07;2.40;99.90
1524;DHT22;755;53.658;10.118;2023-12-22T23:55:11;2.30;99.90
